sensor_id;sensor_type;location;lat;lon;timestamp;P1;durP1;ratioP1;P2;durP2;ratioP2
3733;SDS011;1882;52.256;8.874;2022-11-21T00:00:44;19.90;;;10.30;;
3733;SDS011;1882;52.256;8.874;2022-11-21T00:03:12;17.03;;;9.87;;
3733;SDS011;1882;52.256;8.874;2022-11-21T00:05:41;18.03;;;10.13;;
3733;SDS011;1882;52.256;8.874;2022-11-21T00:08:16;17.33;;;10.23;;
3733;SDS011;1882;52.256;8.874;2022-11-21T00:10:45;17.27;;;9.27;;
3733;SDS011;1882;52.256;8.874;2022-11-21T00:13:13;21.90;;;10.77;;
3733;SDS011;1882;52.256;8.874;2022-11-21T00:15:44;17.83;;;9.63;;
3733;SDS011;1882;52.256;8.874;2022-11-21T00:18:11;20.10;;;10.00;;
3733;SDS011;1882;52.256;8.874;2022-11-21T00:20:39;18.80;;;9.90;;
3733;SDS011;1882;52.256;8.874;2022-11-21T00:23:06;16.90;;;9.67;;
3733;SDS011;1882;52.256;8.874;2022-11-21T00:25:33;18.67;;;9.37;;
3733;SDS011;1882;52.256;8.874;2022-11-21T00:28:02;19.20;;;10.00;;
3733;SDS011;1882;52.256;8.874;2022-11-21T00:30:29;15.90;;;9.13;;
3733;SDS011;1882;52.256;8.874;2022-11-21T00:32:57;18.97;;;9.50;;
3733;SDS011;1882;52.256;8.874;2022-11-21T00:35:23;17.60;;;9.70;;
3733;SDS011;1882;52.256;8.874;2022-11-21T00:37:50;19.20;;;9.80;;
3733;SDS011;1882;52.256;8.874;2022-11-21T00:40:17;18.03;;;10.87;;
3733;SDS011;1882;52.256;8.874;2022-11-21T00:42:44;22.03;;;10.93;;
3733;SDS011;1882;52.256;8.874;2022-11-21T00:45:12;18.70;;;10.13;;
3733;SDS011;1882;52.256;8.874;2022-11-21T00:47:43;19.93;;;10.23;;
3733;SDS011;1882;52.256;8.874;2022-11-21T00:50:10;18.63;;;9.87;;
3733;SDS011;1882;52.256;8.874;2022-11-21T00:52:36;17.50;;;9.73;;
3733;SDS011;1882;52.256;8.874;2022-11-21T00:55:03;16.90;;;9.40;;
3733;SDS011;1882;52.256;8.874;2022-11-21T00:57:30;20.30;;;10.30;;
3733;SDS011;1882;52.256;8.874;2022-11-21T00:59:56;22.13;;;10.60;;
3733;SDS011;1882;52.256;8.874;2022-11-21T01:02:23;19.87;;;10.43;;
3733;SDS011;1882;52.256;8.874;2022-11-21T01:04:52;16.20;;;8.93;;
3733;SDS011;1882;52.256;8.874;2022-11-21T01:07:20;17.63;;;10.10;;
3733;SDS011;1882;52.256;8.874;2022-11-21T01:09:47;20.97;;;10.50;;
3733;SDS011;1882;52.256;8.874;2022-11-21T01:12:14;16.80;;;8.80;;
3733;SDS011;1882;52.256;8.874;2022-11-21T01:14:40;18.10;;;9.80;;
3733;SDS011;1882;52.256;8.874;2022-11-21T01:17:07;20.33;;;10.40;;
3733;SDS011;1882;52.256;8.874;2022-11-21T01:19:41;18.40;;;9.90;;
3733;SDS011;1882;52.256;8.874;2022-11-21T01:22:08;22.23;;;10.80;;
3733;SDS011;1882;52.256;8.874;2022-11-21T01:24:34;20.10;;;10.30;;
3733;SDS011;1882;52.256;8.874;2022-11-21T01:27:01;20.90;;;11.03;;
3733;SDS011;1882;52.256;8.874;2022-11-21T01:29:27;19.80;;;10.10;;
3733;SDS011;1882;52.256;8.874;2022-11-21T01:31:54;18.93;;;10.57;;
3733;SDS011;1882;52.256;8.874;2022-11-21T01:34:21;21.47;;;10.83;;
3733;SDS011;1882;52.256;8.874;2022-11-21T01:36:48;18.70;;;9.57;;
3733;SDS011;1882;52.256;8.874;2022-11-21T01:39:14;20.60;;;10.00;;
3733;SDS011;1882;52.256;8.874;2022-11-21T01:41:42;18.70;;;9.80;;
3733;SDS011;1882;52.256;8.874;2022-11-21T01:44:16;21.20;;;10.93;;
3733;SDS011;1882;52.256;8.874;2022-11-21T01:46:47;20.13;;;10.90;;
3733;SDS011;1882;52.256;8.874;2022-11-21T01:59:48;18.00;;;9.93;;
3733;SDS011;1882;52.256;8.874;2022-11-21T02:02:19;21.53;;;10.20;;
3733;SDS011;1882;52.256;8.874;2022-11-21T02:04:47;20.23;;;10.50;;
3733;SDS011;1882;52.256;8.874;2022-11-21T02:07:14;20.50;;;9.20;;
3733;SDS011;1882;52.256;8.874;2022-11-21T02:09:44;17.77;;;9.60;;
3733;SDS011;1882;52.256;8.874;2022-11-21T02:12:20;18.80;;;10.70;;
3733;SDS011;1882;52.256;8.874;2022-11-21T02:14:51;20.20;;;9.80;;
3733;SDS011;1882;52.256;8.874;2022-11-21T02:17:19;19.20;;;10.00;;
3733;SDS011;1882;52.256;8.874;2022-11-21T02:19:56;16.07;;;9.40;;
3733;SDS011;1882;52.256;8.874;2022-11-21T02:25:02;16.30;;;9.70;;
3733;SDS011;1882;52.256;8.874;2022-11-21T02:27:29;20.03;;;10.10;;
3733;SDS011;1882;52.256;8.874;2022-11-21T02:30:00;14.50;;;8.40;;
3733;SDS011;1882;52.256;8.874;2022-11-21T02:32:32;19.03;;;8.97;;
3733;SDS011;1882;52.256;8.874;2022-11-21T02:35:16;19.30;;;8.50;;
3733;SDS011;1882;52.256;8.874;2022-11-21T02:37:44;13.70;;;7.90;;
3733;SDS011;1882;52.256;8.874;2022-11-21T02:40:27;13.87;;;7.90;;
3733;SDS011;1882;52.256;8.874;2022-11-21T02:43:45;14.90;;;8.00;;
3733;SDS011;1882;52.256;8.874;2022-11-21T02:45:49;14.23;;;8.30;;
3733;SDS011;1882;52.256;8.874;2022-11-21T02:48:15;14.83;;;7.50;;
3733;SDS011;1882;52.256;8.874;2022-11-21T02:50:43;15.57;;;7.73;;
3733;SDS011;1882;52.256;8.874;2022-11-21T02:53:13;15.67;;;8.20;;
3733;SDS011;1882;52.256;8.874;2022-11-21T02:55:42;15.70;;;8.90;;
3733;SDS011;1882;52.256;8.874;2022-11-21T02:58:11;17.70;;;9.40;;
3733;SDS011;1882;52.256;8.874;2022-11-21T03:00:43;20.27;;;9.23;;
3733;SDS011;1882;52.256;8.874;2022-11-21T03:03:10;19.27;;;10.10;;
3733;SDS011;1882;52.256;8.874;2022-11-21T03:05:38;19.20;;;10.40;;
3733;SDS011;1882;52.256;8.874;2022-11-21T03:08:05;16.43;;;8.90;;
3733;SDS011;1882;52.256;8.874;2022-11-21T03:10:32;18.40;;;8.97;;
3733;SDS011;1882;52.256;8.874;2022-11-21T03:12:58;20.73;;;9.67;;
3733;SDS011;1882;52.256;8.874;2022-11-21T03:15:29;16.97;;;8.80;;
3733;SDS011;1882;52.256;8.874;2022-11-21T03:17:57;19.33;;;8.87;;
3733;SDS011;1882;52.256;8.874;2022-11-21T03:20:26;15.67;;;8.80;;
3733;SDS011;1882;52.256;8.874;2022-11-21T03:22:53;29.03;;;9.73;;
3733;SDS011;1882;52.256;8.874;2022-11-21T03:25:19;20.50;;;9.77;;
3733;SDS011;1882;52.256;8.874;2022-11-21T03:27:49;18.90;;;9.63;;
3733;SDS011;1882;52.256;8.874;2022-11-21T03:30:17;20.73;;;10.37;;
3733;SDS011;1882;52.256;8.874;2022-11-21T03:32:44;20.97;;;10.13;;
3733;SDS011;1882;52.256;8.874;2022-11-21T03:35:11;21.60;;;10.57;;
3733;SDS011;1882;52.256;8.874;2022-11-21T03:37:40;22.00;;;10.07;;
3733;SDS011;1882;52.256;8.874;2022-11-21T03:40:07;18.37;;;10.07;;
3733;SDS011;1882;52.256;8.874;2022-11-21T03:42:34;27.30;;;10.77;;
3733;SDS011;1882;52.256;8.874;2022-11-21T03:45:01;21.47;;;10.60;;
3733;SDS011;1882;52.256;8.874;2022-11-21T03:47:27;21.23;;;10.83;;
3733;SDS011;1882;52.256;8.874;2022-11-21T03:49:57;21.67;;;10.83;;
3733;SDS011;1882;52.256;8.874;2022-11-21T03:52:24;19.80;;;10.13;;
3733;SDS011;1882;52.256;8.874;2022-11-21T03:54:51;19.13;;;10.20;;
3733;SDS011;1882;52.256;8.874;2022-11-21T03:57:17;22.47;;;10.50;;
3733;SDS011;1882;52.256;8.874;2022-11-21T03:59:44;20.00;;;10.30;;
3733;SDS011;1882;52.256;8.874;2022-11-21T04:02:10;25.30;;;11.57;;
3733;SDS011;1882;52.256;8.874;2022-11-21T04:04:37;23.43;;;10.33;;
3733;SDS011;1882;52.256;8.874;2022-11-21T04:07:04;21.97;;;10.53;;
3733;SDS011;1882;52.256;8.874;2022-11-21T04:09:30;22.47;;;11.03;;
3733;SDS011;1882;52.256;8.874;2022-11-21T04:11:57;23.67;;;10.53;;
3733;SDS011;1882;52.256;8.874;2022-11-21T04:14:24;21.83;;;10.43;;
3733;SDS011;1882;52.256;8.874;2022-11-21T04:16:51;22.60;;;11.70;;
3733;SDS011;1882;52.256;8.874;2022-11-21T04:19:18;26.80;;;10.63;;
3733;SDS011;1882;52.256;8.874;2022-11-21T04:21:45;23.87;;;11.90;;
3733;SDS011;1882;52.256;8.874;2022-11-21T04:24:12;25.80;;;11.60;;
3733;SDS011;1882;52.256;8.874;2022-11-21T04:26:38;21.13;;;11.13;;
3733;SDS011;1882;52.256;8.874;2022-11-21T04:29:05;24.20;;;12.07;;
3733;SDS011;1882;52.256;8.874;2022-11-21T04:31:34;20.43;;;10.23;;
3733;SDS011;1882;52.256;8.874;2022-11-21T04:34:03;21.50;;;11.20;;
3733;SDS011;1882;52.256;8.874;2022-11-21T04:36:44;25.70;;;11.20;;
3733;SDS011;1882;52.256;8.874;2022-11-21T04:39:11;20.80;;;10.70;;
3733;SDS011;1882;52.256;8.874;2022-11-21T04:41:37;23.63;;;11.20;;
3733;SDS011;1882;52.256;8.874;2022-11-21T04:44:06;22.77;;;11.37;;
3733;SDS011;1882;52.256;8.874;2022-11-21T04:46:33;19.47;;;10.97;;
3733;SDS011;1882;52.256;8.874;2022-11-21T04:49:00;23.20;;;11.33;;
3733;SDS011;1882;52.256;8.874;2022-11-21T04:51:27;21.93;;;11.57;;
3733;SDS011;1882;52.256;8.874;2022-11-21T04:53:53;24.17;;;11.27;;
3733;SDS011;1882;52.256;8.874;2022-11-21T04:56:20;24.00;;;12.03;;
3733;SDS011;1882;52.256;8.874;2022-11-21T04:58:50;21.20;;;11.73;;
3733;SDS011;1882;52.256;8.874;2022-11-21T05:01:17;23.30;;;12.17;;
3733;SDS011;1882;52.256;8.874;2022-11-21T05:03:44;24.97;;;11.40;;
3733;SDS011;1882;52.256;8.874;2022-11-21T05:06:11;23.97;;;12.47;;
3733;SDS011;1882;52.256;8.874;2022-11-21T05:08:37;28.17;;;12.87;;
3733;SDS011;1882;52.256;8.874;2022-11-21T05:11:04;25.53;;;12.70;;
3733;SDS011;1882;52.256;8.874;2022-11-21T05:13:51;23.63;;;11.70;;
3733;SDS011;1882;52.256;8.874;2022-11-21T05:16:18;24.83;;;12.20;;
3733;SDS011;1882;52.256;8.874;2022-11-21T05:18:47;24.93;;;12.10;;
3733;SDS011;1882;52.256;8.874;2022-11-21T05:21:14;21.23;;;11.93;;
3733;SDS011;1882;52.256;8.874;2022-11-21T05:23:40;26.13;;;12.50;;
3733;SDS011;1882;52.256;8.874;2022-11-21T05:26:07;23.33;;;12.43;;
3733;SDS011;1882;52.256;8.874;2022-11-21T05:28:34;24.73;;;12.90;;
3733;SDS011;1882;52.256;8.874;2022-11-21T05:31:00;24.30;;;13.20;;
3733;SDS011;1882;52.256;8.874;2022-11-21T05:33:27;23.93;;;12.23;;
3733;SDS011;1882;52.256;8.874;2022-11-21T05:35:53;22.97;;;11.87;;
3733;SDS011;1882;52.256;8.874;2022-11-21T05:38:20;22.70;;;11.97;;
3733;SDS011;1882;52.256;8.874;2022-11-21T05:40:47;24.20;;;12.63;;
3733;SDS011;1882;52.256;8.874;2022-11-21T05:43:13;24.37;;;13.07;;
3733;SDS011;1882;52.256;8.874;2022-11-21T05:45:58;22.67;;;12.37;;
3733;SDS011;1882;52.256;8.874;2022-11-21T05:48:25;26.67;;;13.10;;
3733;SDS011;1882;52.256;8.874;2022-11-21T05:50:52;22.70;;;11.90;;
3733;SDS011;1882;52.256;8.874;2022-11-21T05:53:18;26.20;;;12.53;;
3733;SDS011;1882;52.256;8.874;2022-11-21T05:55:45;24.50;;;12.13;;
3733;SDS011;1882;52.256;8.874;2022-11-21T05:58:12;23.07;;;12.37;;
3733;SDS011;1882;52.256;8.874;2022-11-21T06:00:43;23.80;;;12.40;;
3733;SDS011;1882;52.256;8.874;2022-11-21T06:03:12;23.60;;;11.93;;
3733;SDS011;1882;52.256;8.874;2022-11-21T06:05:59;26.40;;;12.17;;
3733;SDS011;1882;52.256;8.874;2022-11-21T06:08:31;23.90;;;11.97;;
3733;SDS011;1882;52.256;8.874;2022-11-21T06:10:59;28.03;;;12.30;;
3733;SDS011;1882;52.256;8.874;2022-11-21T06:13:27;26.67;;;12.70;;
3733;SDS011;1882;52.256;8.874;2022-11-21T06:15:57;27.03;;;12.50;;
3733;SDS011;1882;52.256;8.874;2022-11-21T06:18:33;23.10;;;11.53;;
3733;SDS011;1882;52.256;8.874;2022-11-21T06:21:02;22.67;;;11.50;;
3733;SDS011;1882;52.256;8.874;2022-11-21T06:23:29;23.13;;;11.90;;
3733;SDS011;1882;52.256;8.874;2022-11-21T06:25:59;24.00;;;11.63;;
3733;SDS011;1882;52.256;8.874;2022-11-21T06:28:31;27.17;;;11.57;;
3733;SDS011;1882;52.256;8.874;2022-11-21T06:31:05;24.10;;;12.70;;
3733;SDS011;1882;52.256;8.874;2022-11-21T06:33:33;24.43;;;12.50;;
3733;SDS011;1882;52.256;8.874;2022-11-21T06:36:03;26.07;;;13.67;;
3733;SDS011;1882;52.256;8.874;2022-11-21T06:38:31;25.37;;;11.63;;
3733;SDS011;1882;52.256;8.874;2022-11-21T06:41:05;25.17;;;12.40;;
3733;SDS011;1882;52.256;8.874;2022-11-21T06:43:33;29.43;;;13.10;;
3733;SDS011;1882;52.256;8.874;2022-11-21T06:46:00;24.90;;;12.80;;
3733;SDS011;1882;52.256;8.874;2022-11-21T06:48:29;23.73;;;12.97;;
3733;SDS011;1882;52.256;8.874;2022-11-21T06:50:56;24.90;;;12.60;;
3733;SDS011;1882;52.256;8.874;2022-11-21T06:53:23;22.50;;;11.70;;
3733;SDS011;1882;52.256;8.874;2022-11-21T06:55:50;24.17;;;12.87;;
3733;SDS011;1882;52.256;8.874;2022-11-21T06:58:16;24.30;;;12.20;;
3733;SDS011;1882;52.256;8.874;2022-11-21T07:00:43;23.73;;;12.37;;
3733;SDS011;1882;52.256;8.874;2022-11-21T07:03:16;22.97;;;11.50;;
3733;SDS011;1882;52.256;8.874;2022-11-21T07:05:43;24.43;;;12.23;;
3733;SDS011;1882;52.256;8.874;2022-11-21T07:08:10;24.47;;;11.93;;
3733;SDS011;1882;52.256;8.874;2022-11-21T07:10:39;23.40;;;11.67;;
3733;SDS011;1882;52.256;8.874;2022-11-21T07:13:25;22.03;;;11.70;;
3733;SDS011;1882;52.256;8.874;2022-11-21T07:15:54;24.03;;;10.93;;
3733;SDS011;1882;52.256;8.874;2022-11-21T07:18:21;24.77;;;12.57;;
3733;SDS011;1882;52.256;8.874;2022-11-21T07:20:48;27.23;;;12.60;;
3733;SDS011;1882;52.256;8.874;2022-11-21T07:23:15;23.70;;;11.60;;
3733;SDS011;1882;52.256;8.874;2022-11-21T07:25:42;26.50;;;12.00;;
3733;SDS011;1882;52.256;8.874;2022-11-21T07:28:09;22.80;;;11.70;;
3733;SDS011;1882;52.256;8.874;2022-11-21T07:30:36;26.87;;;12.43;;
3733;SDS011;1882;52.256;8.874;2022-11-21T07:33:03;21.97;;;11.30;;
3733;SDS011;1882;52.256;8.874;2022-11-21T07:35:31;23.90;;;11.77;;
3733;SDS011;1882;52.256;8.874;2022-11-21T07:37:59;27.50;;;12.77;;
3733;SDS011;1882;52.256;8.874;2022-11-21T07:40:26;28.50;;;12.47;;
3733;SDS011;1882;52.256;8.874;2022-11-21T07:42:59;26.70;;;14.03;;
3733;SDS011;1882;52.256;8.874;2022-11-21T07:45:34;25.70;;;12.77;;
3733;SDS011;1882;52.256;8.874;2022-11-21T07:48:02;25.80;;;12.83;;
3733;SDS011;1882;52.256;8.874;2022-11-21T07:50:30;23.53;;;12.23;;
3733;SDS011;1882;52.256;8.874;2022-11-21T07:52:57;28.83;;;13.20;;
3733;SDS011;1882;52.256;8.874;2022-11-21T07:55:25;27.80;;;12.40;;
3733;SDS011;1882;52.256;8.874;2022-11-21T07:58:01;29.43;;;13.90;;
3733;SDS011;1882;52.256;8.874;2022-11-21T08:00:34;31.97;;;14.17;;
3733;SDS011;1882;52.256;8.874;2022-11-21T08:03:05;28.13;;;13.83;;
3733;SDS011;1882;52.256;8.874;2022-11-21T08:05:36;26.93;;;13.90;;
3733;SDS011;1882;52.256;8.874;2022-11-21T08:08:04;31.50;;;13.83;;
3733;SDS011;1882;52.256;8.874;2022-11-21T08:10:31;31.33;;;14.37;;
3733;SDS011;1882;52.256;8.874;2022-11-21T08:12:58;29.73;;;14.00;;
3733;SDS011;1882;52.256;8.874;2022-11-21T08:15:25;30.47;;;14.90;;
3733;SDS011;1882;52.256;8.874;2022-11-21T08:17:51;27.50;;;13.73;;
3733;SDS011;1882;52.256;8.874;2022-11-21T08:20:18;28.47;;;14.27;;
3733;SDS011;1882;52.256;8.874;2022-11-21T08:22:44;32.30;;;15.67;;
3733;SDS011;1882;52.256;8.874;2022-11-21T08:25:11;28.37;;;13.60;;
3733;SDS011;1882;52.256;8.874;2022-11-21T08:27:38;27.37;;;13.23;;
3733;SDS011;1882;52.256;8.874;2022-11-21T08:30:06;29.80;;;14.40;;
3733;SDS011;1882;52.256;8.874;2022-11-21T08:32:33;25.63;;;13.90;;
3733;SDS011;1882;52.256;8.874;2022-11-21T08:35:00;31.53;;;14.23;;
3733;SDS011;1882;52.256;8.874;2022-11-21T08:37:27;30.57;;;13.80;;
3733;SDS011;1882;52.256;8.874;2022-11-21T08:39:57;32.00;;;13.37;;
3733;SDS011;1882;52.256;8.874;2022-11-21T08:42:27;27.90;;;13.47;;
3733;SDS011;1882;52.256;8.874;2022-11-21T08:44:54;30.80;;;15.20;;
3733;SDS011;1882;52.256;8.874;2022-11-21T08:47:20;30.77;;;14.80;;
3733;SDS011;1882;52.256;8.874;2022-11-21T08:49:47;37.30;;;14.80;;
3733;SDS011;1882;52.256;8.874;2022-11-21T08:52:14;28.47;;;14.53;;
3733;SDS011;1882;52.256;8.874;2022-11-21T08:54:43;34.80;;;16.03;;
3733;SDS011;1882;52.256;8.874;2022-11-21T08:57:10;31.43;;;15.23;;
3733;SDS011;1882;52.256;8.874;2022-11-21T08:59:37;28.20;;;14.40;;
3733;SDS011;1882;52.256;8.874;2022-11-21T09:02:04;31.77;;;14.67;;
3733;SDS011;1882;52.256;8.874;2022-11-21T09:04:31;29.83;;;15.37;;
3733;SDS011;1882;52.256;8.874;2022-11-21T09:06:57;29.60;;;15.17;;
3733;SDS011;1882;52.256;8.874;2022-11-21T09:09:25;32.90;;;15.10;;
3733;SDS011;1882;52.256;8.874;2022-11-21T09:11:51;28.87;;;14.10;;
3733;SDS011;1882;52.256;8.874;2022-11-21T09:14:18;31.43;;;14.50;;
3733;SDS011;1882;52.256;8.874;2022-11-21T09:17:03;26.90;;;13.20;;
3733;SDS011;1882;52.256;8.874;2022-11-21T09:19:48;27.23;;;13.87;;
3733;SDS011;1882;52.256;8.874;2022-11-21T09:22:15;28.37;;;13.70;;
3733;SDS011;1882;52.256;8.874;2022-11-21T09:24:42;29.50;;;14.83;;
3733;SDS011;1882;52.256;8.874;2022-11-21T09:27:08;28.03;;;13.33;;
3733;SDS011;1882;52.256;8.874;2022-11-21T09:29:35;29.30;;;13.90;;
3733;SDS011;1882;52.256;8.874;2022-11-21T09:32:02;31.57;;;14.90;;
3733;SDS011;1882;52.256;8.874;2022-11-21T09:34:28;32.87;;;15.90;;
3733;SDS011;1882;52.256;8.874;2022-11-21T09:36:57;28.90;;;15.20;;
3733;SDS011;1882;52.256;8.874;2022-11-21T09:39:23;31.87;;;15.10;;
3733;SDS011;1882;52.256;8.874;2022-11-21T09:47:23;30.80;;;14.10;;
3733;SDS011;1882;52.256;8.874;2022-11-21T09:50:00;28.93;;;14.83;;
3733;SDS011;1882;52.256;8.874;2022-11-21T09:52:40;29.50;;;14.80;;
3733;SDS011;1882;52.256;8.874;2022-11-21T09:57:44;33.97;;;15.27;;
3733;SDS011;1882;52.256;8.874;2022-11-21T10:00:17;31.53;;;14.90;;
3733;SDS011;1882;52.256;8.874;2022-11-21T10:02:46;34.53;;;14.90;;
3733;SDS011;1882;52.256;8.874;2022-11-21T10:05:13;34.20;;;15.10;;
3733;SDS011;1882;52.256;8.874;2022-11-21T10:07:40;30.87;;;14.27;;
3733;SDS011;1882;52.256;8.874;2022-11-21T10:10:15;28.83;;;13.97;;
3733;SDS011;1882;52.256;8.874;2022-11-21T10:18:24;29.97;;;14.40;;
3733;SDS011;1882;52.256;8.874;2022-11-21T10:26:46;33.30;;;14.60;;
3733;SDS011;1882;52.256;8.874;2022-11-21T10:29:25;29.03;;;14.13;;
3733;SDS011;1882;52.256;8.874;2022-11-21T10:31:54;27.73;;;13.97;;
3733;SDS011;1882;52.256;8.874;2022-11-21T10:34:22;31.87;;;14.10;;
3733;SDS011;1882;52.256;8.874;2022-11-21T10:37:10;31.23;;;14.77;;
3733;SDS011;1882;52.256;8.874;2022-11-21T10:40:01;25.80;;;13.90;;
3733;SDS011;1882;52.256;8.874;2022-11-21T10:45:20;34.87;;;15.17;;
3733;SDS011;1882;52.256;8.874;2022-11-21T10:47:48;31.67;;;14.57;;
3733;SDS011;1882;52.256;8.874;2022-11-21T10:50:38;35.00;;;15.70;;
3733;SDS011;1882;52.256;8.874;2022-11-21T10:53:19;29.00;;;14.07;;
3733;SDS011;1882;52.256;8.874;2022-11-21T10:58:47;28.80;;;13.27;;
3733;SDS011;1882;52.256;8.874;2022-11-21T11:01:19;34.07;;;15.70;;
3733;SDS011;1882;52.256;8.874;2022-11-21T11:03:46;32.60;;;14.20;;
3733;SDS011;1882;52.256;8.874;2022-11-21T11:06:32;32.97;;;14.50;;
3733;SDS011;1882;52.256;8.874;2022-11-21T11:08:59;34.53;;;15.47;;
3733;SDS011;1882;52.256;8.874;2022-11-21T11:11:26;29.13;;;14.03;;
3733;SDS011;1882;52.256;8.874;2022-11-21T11:16:25;30.23;;;14.80;;
3733;SDS011;1882;52.256;8.874;2022-11-21T11:21:19;33.67;;;14.90;;
3733;SDS011;1882;52.256;8.874;2022-11-21T11:23:48;32.07;;;13.40;;
3733;SDS011;1882;52.256;8.874;2022-11-21T11:26:26;30.50;;;13.53;;
3733;SDS011;1882;52.256;8.874;2022-11-21T11:29:16;26.00;;;12.50;;
3733;SDS011;1882;52.256;8.874;2022-11-21T11:34:27;30.20;;;13.20;;
3733;SDS011;1882;52.256;8.874;2022-11-21T11:37:11;28.40;;;13.23;;
3733;SDS011;1882;52.256;8.874;2022-11-21T11:42:22;25.10;;;12.10;;
3733;SDS011;1882;52.256;8.874;2022-11-21T11:48:23;25.80;;;11.63;;
3733;SDS011;1882;52.256;8.874;2022-11-21T11:50:54;22.40;;;10.77;;
3733;SDS011;1882;52.256;8.874;2022-11-21T11:53:28;24.53;;;10.97;;
3733;SDS011;1882;52.256;8.874;2022-11-21T11:55:58;25.57;;;11.40;;
3733;SDS011;1882;52.256;8.874;2022-11-21T12:01:01;20.27;;;9.70;;
3733;SDS011;1882;52.256;8.874;2022-11-21T12:05:59;19.60;;;9.87;;
3733;SDS011;1882;52.256;8.874;2022-11-21T12:17:24;22.90;;;9.67;;
3733;SDS011;1882;52.256;8.874;2022-11-21T12:20:04;22.73;;;11.07;;
3733;SDS011;1882;52.256;8.874;2022-11-21T12:22:39;22.80;;;10.83;;
3733;SDS011;1882;52.256;8.874;2022-11-21T12:25:10;22.40;;;10.63;;
3733;SDS011;1882;52.256;8.874;2022-11-21T12:27:39;21.20;;;9.97;;
3733;SDS011;1882;52.256;8.874;2022-11-21T12:32:56;18.90;;;9.13;;
3733;SDS011;1882;52.256;8.874;2022-11-21T12:38:23;20.13;;;9.20;;
3733;SDS011;1882;52.256;8.874;2022-11-21T12:44:44;19.03;;;8.40;;
3733;SDS011;1882;52.256;8.874;2022-11-21T12:49:52;17.40;;;8.93;;
3733;SDS011;1882;52.256;8.874;2022-11-21T12:52:56;19.37;;;8.53;;
3733;SDS011;1882;52.256;8.874;2022-11-21T12:55:43;18.90;;;9.50;;
3733;SDS011;1882;52.256;8.874;2022-11-21T13:06:02;16.70;;;8.40;;
3733;SDS011;1882;52.256;8.874;2022-11-21T13:08:30;18.93;;;9.13;;
3733;SDS011;1882;52.256;8.874;2022-11-21T13:14:01;19.00;;;9.03;;
3733;SDS011;1882;52.256;8.874;2022-11-21T13:16:29;16.77;;;8.67;;
3733;SDS011;1882;52.256;8.874;2022-11-21T13:19:13;19.00;;;8.40;;
3733;SDS011;1882;52.256;8.874;2022-11-21T13:21:45;21.00;;;9.37;;
3733;SDS011;1882;52.256;8.874;2022-11-21T13:27:31;15.87;;;7.40;;
3733;SDS011;1882;52.256;8.874;2022-11-21T13:32:46;15.60;;;7.70;;
3733;SDS011;1882;52.256;8.874;2022-11-21T13:45:54;17.87;;;8.30;;
3733;SDS011;1882;52.256;8.874;2022-11-21T14:07:34;17.30;;;8.47;;
3733;SDS011;1882;52.256;8.874;2022-11-21T14:10:03;19.57;;;9.30;;
3733;SDS011;1882;52.256;8.874;2022-11-21T14:15:09;18.30;;;8.90;;
3733;SDS011;1882;52.256;8.874;2022-11-21T14:17:44;16.53;;;9.13;;
3733;SDS011;1882;52.256;8.874;2022-11-21T14:28:23;17.17;;;8.83;;
3733;SDS011;1882;52.256;8.874;2022-11-21T14:31:01;16.00;;;8.70;;
3733;SDS011;1882;52.256;8.874;2022-11-21T14:33:32;19.97;;;9.40;;
3733;SDS011;1882;52.256;8.874;2022-11-21T14:38:40;20.07;;;9.00;;
3733;SDS011;1882;52.256;8.874;2022-11-21T14:41:10;20.00;;;9.30;;
3733;SDS011;1882;52.256;8.874;2022-11-21T14:43:41;19.17;;;11.40;;
3733;SDS011;1882;52.256;8.874;2022-11-21T14:46:13;19.33;;;9.60;;
3733;SDS011;1882;52.256;8.874;2022-11-21T14:48:43;15.30;;;8.23;;
3733;SDS011;1882;52.256;8.874;2022-11-21T14:51:10;17.47;;;9.03;;
3733;SDS011;1882;52.256;8.874;2022-11-21T14:53:40;15.37;;;8.47;;
3733;SDS011;1882;52.256;8.874;2022-11-21T14:56:09;16.10;;;7.80;;
3733;SDS011;1882;52.256;8.874;2022-11-21T14:58:39;15.57;;;8.47;;
3733;SDS011;1882;52.256;8.874;2022-11-21T15:01:07;21.30;;;9.57;;
3733;SDS011;1882;52.256;8.874;2022-11-21T15:03:57;16.10;;;7.97;;
3733;SDS011;1882;52.256;8.874;2022-11-21T15:06:29;16.40;;;8.00;;
3733;SDS011;1882;52.256;8.874;2022-11-21T15:08:58;15.50;;;8.93;;
3733;SDS011;1882;52.256;8.874;2022-11-21T15:11:48;19.07;;;8.73;;
3733;SDS011;1882;52.256;8.874;2022-11-21T15:14:22;18.03;;;8.50;;
3733;SDS011;1882;52.256;8.874;2022-11-21T15:16:51;20.57;;;9.73;;
3733;SDS011;1882;52.256;8.874;2022-11-21T15:19:19;22.73;;;9.33;;
3733;SDS011;1882;52.256;8.874;2022-11-21T15:21:50;21.50;;;10.70;;
3733;SDS011;1882;52.256;8.874;2022-11-21T15:27:21;17.63;;;8.80;;
3733;SDS011;1882;52.256;8.874;2022-11-21T15:46:31;20.90;;;10.10;;
3733;SDS011;1882;52.256;8.874;2022-11-21T15:49:08;24.43;;;10.87;;
3733;SDS011;1882;52.256;8.874;2022-11-21T15:51:55;22.83;;;11.20;;
3733;SDS011;1882;52.256;8.874;2022-11-21T15:54:37;24.93;;;11.33;;
3733;SDS011;1882;52.256;8.874;2022-11-21T15:57:04;23.00;;;10.70;;
3733;SDS011;1882;52.256;8.874;2022-11-21T15:59:31;20.10;;;10.63;;
3733;SDS011;1882;52.256;8.874;2022-11-21T16:01:58;24.87;;;11.40;;
3733;SDS011;1882;52.256;8.874;2022-11-21T16:04:24;19.47;;;10.53;;
3733;SDS011;1882;52.256;8.874;2022-11-21T16:06:52;21.50;;;11.57;;
3733;SDS011;1882;52.256;8.874;2022-11-21T16:09:19;21.40;;;10.80;;
3733;SDS011;1882;52.256;8.874;2022-11-21T16:11:46;22.00;;;10.60;;
3733;SDS011;1882;52.256;8.874;2022-11-21T16:14:13;22.77;;;11.00;;
3733;SDS011;1882;52.256;8.874;2022-11-21T16:16:41;22.30;;;11.27;;
3733;SDS011;1882;52.256;8.874;2022-11-21T16:19:13;21.57;;;10.00;;
3733;SDS011;1882;52.256;8.874;2022-11-21T16:21:40;20.57;;;10.77;;
3733;SDS011;1882;52.256;8.874;2022-11-21T16:24:07;27.20;;;10.93;;
3733;SDS011;1882;52.256;8.874;2022-11-21T16:26:36;20.37;;;9.33;;
3733;SDS011;1882;52.256;8.874;2022-11-21T16:29:17;23.10;;;9.77;;
3733;SDS011;1882;52.256;8.874;2022-11-21T16:31:44;19.40;;;9.50;;
3733;SDS011;1882;52.256;8.874;2022-11-21T16:34:13;18.43;;;9.10;;
3733;SDS011;1882;52.256;8.874;2022-11-21T16:36:43;17.50;;;9.23;;
3733;SDS011;1882;52.256;8.874;2022-11-21T16:39:10;24.13;;;10.37;;
3733;SDS011;1882;52.256;8.874;2022-11-21T16:41:46;18.93;;;10.00;;
3733;SDS011;1882;52.256;8.874;2022-11-21T16:44:14;22.30;;;10.70;;
3733;SDS011;1882;52.256;8.874;2022-11-21T16:46:41;23.67;;;10.73;;
3733;SDS011;1882;52.256;8.874;2022-11-21T16:49:12;21.47;;;9.57;;
3733;SDS011;1882;52.256;8.874;2022-11-21T16:51:44;21.77;;;10.43;;
3733;SDS011;1882;52.256;8.874;2022-11-21T16:54:11;19.13;;;9.80;;
3733;SDS011;1882;52.256;8.874;2022-11-21T16:56:38;22.57;;;10.57;;
3733;SDS011;1882;52.256;8.874;2022-11-21T16:59:06;19.67;;;9.93;;
3733;SDS011;1882;52.256;8.874;2022-11-21T17:01:34;19.10;;;9.17;;
3733;SDS011;1882;52.256;8.874;2022-11-21T17:04:01;22.23;;;11.00;;
3733;SDS011;1882;52.256;8.874;2022-11-21T17:06:28;19.50;;;10.40;;
3733;SDS011;1882;52.256;8.874;2022-11-21T17:08:57;20.27;;;10.30;;
3733;SDS011;1882;52.256;8.874;2022-11-21T17:11:26;33.47;;;10.80;;
3733;SDS011;1882;52.256;8.874;2022-11-21T17:13:55;22.00;;;10.17;;
3733;SDS011;1882;52.256;8.874;2022-11-21T17:16:23;20.53;;;9.17;;
3733;SDS011;1882;52.256;8.874;2022-11-21T17:18:57;18.90;;;10.57;;
3733;SDS011;1882;52.256;8.874;2022-11-21T17:21:25;21.13;;;10.27;;
3733;SDS011;1882;52.256;8.874;2022-11-21T17:23:53;24.97;;;11.60;;
3733;SDS011;1882;52.256;8.874;2022-11-21T17:26:20;20.50;;;9.40;;
3733;SDS011;1882;52.256;8.874;2022-11-21T17:28:55;21.87;;;10.50;;
3733;SDS011;1882;52.256;8.874;2022-11-21T17:31:24;20.10;;;10.00;;
3733;SDS011;1882;52.256;8.874;2022-11-21T17:33:51;21.40;;;11.50;;
3733;SDS011;1882;52.256;8.874;2022-11-21T17:36:20;22.53;;;10.20;;
3733;SDS011;1882;52.256;8.874;2022-11-21T17:38:50;23.00;;;11.73;;
3733;SDS011;1882;52.256;8.874;2022-11-21T17:41:18;21.40;;;10.40;;
3733;SDS011;1882;52.256;8.874;2022-11-21T17:43:46;19.90;;;9.60;;